Terminal Aerodrome Forecast
Issued by NWS

Home | Current Version | Previous Version | Text Only | Print | Product List | Glossary On
Versions: 1 2 3 4 5 6 7 8 9 10 11 12 13 14 15 16 17 18 19 20 21 22
000
FTUS44 KBMX 021213 AAA
TAFANB
TAF AMD
KANB 021213Z 0212/0312 VRB03KT 6SM BR BKN035
      TEMPO 0212/0214 3SM BR BKN007
     FM021500 20005KT P6SM VCTS BKN035CB OVC090
      TEMPO 0218/0222 4SM TSRA OVC025CB
     FM022200 23008KT P6SM SHRA VCTS BKN050CB OVC090
     FM030800 VRB03KT 3SM BR VCSH OVC003=

USA.gov is the U.S. government's official web portal to all federal, state and local government web resources and services.